Time;durP1;ratioP1;P1;durP2;ratioP2;P2;SDS_P1;SDS_P2;PMS_P1;PMS_P2;Temp;Humidity;BMP_temperature;BMP_pressure;BME280_temperature;BME280_humidity;BME280_pressure;Samples;Min_cycle;Max_cycle;Signal;HPM_P1;HPM_P2
2023/07/28 00:00:06;;;;;;;7.97;7.78;;;17.10;99.90;;;;;;6291722;22;21048;-83
2023/07/28 00:02:37;;;;;;;8.27;8.07;;;17.00;99.90;;;;;;6291969;22;20202;-84
2023/07/28 00:05:15;;;;;;;8.00;7.80;;;17.00;99.90;;;;;;6291357;22;20189;-84
2023/07/28 00:07:56;;;;;;;;;;;;;;;;;;;;;
2023/07/28 00:10:26;;;;;;;8.27;8.07;;;17.00;99.90;;;;;;6291949;22;20201;-84
2023/07/28 00:12:54;;;;;;;8.07;7.88;;;16.90;99.90;;;;;;6291416;22;20190;-83
2023/07/28 00:15:23;;;;;;;8.23;8.02;;;16.90;99.90;;;;;;6289972;22;20198;-84
2023/07/28 00:18:03;;;;;;;;;;;;;;;;;;;;;
2023/07/28 00:20:34;;;;;;;8.40;8.20;;;16.90;99.90;;;;;;6290977;22;20212;-85
2023/07/28 00:23:09;;;;;;;8.40;8.20;;;16.90;99.90;;;;;;6292127;22;20193;-83
2023/07/28 00:25:57;;;;;;;8.45;8.25;;;16.90;99.90;;;;;;6291863;22;20212;-86
2023/07/28 00:29:00;;;;;;;;;;;;;;;;;;;;;
2023/07/28 00:31:42;;;;;;;8.20;8.00;;;16.80;99.90;;;;;;6292011;22;20249;-84
2023/07/28 00:34:15;;;;;;;8.30;8.10;;;16.80;99.90;;;;;;6292178;22;20249;-84
2023/07/28 00:39:42;;;;;;;8.60;8.40;;;16.80;99.90;;;;;;6305591;22;20174;-83
2023/07/28 00:42:23;;;;;;;8.30;8.10;;;16.80;99.90;;;;;;6305257;22;20200;-84
2023/07/28 00:45:14;;;;;;;8.27;8.07;;;16.80;99.90;;;;;;6310397;22;20196;-83
2023/07/28 00:47:50;;;;;;;8.40;8.20;;;16.80;99.90;;;;;;6299679;22;20258;-84
2023/07/28 00:50:35;;;;;;;8.30;8.10;;;16.80;99.90;;;;;;6295580;22;20259;-84
2023/07/28 00:53:14;;;;;;;8.30;8.10;;;16.80;99.90;;;;;;6293137;22;20197;-83
2023/07/28 00:56:04;;;;;;;8.10;7.90;;;16.80;99.90;;;;;;6292379;22;20185;-84
2023/07/28 00:58:46;;;;;;;8.20;8.00;;;16.80;99.90;;;;;;6291831;22;20224;-83
2023/07/28 01:01:31;;;;;;;;;;;;;;;;;;;;;
2023/07/28 01:04:38;;;;;;;8.40;8.20;;;16.80;99.90;;;;;;6293844;22;20276;-83
2023/07/28 01:07:37;;;;;;;8.20;8.00;;;16.80;99.90;;;;;;6293196;22;20244;-84
2023/07/28 01:10:17;;;;;;;8.23;8.02;;;16.80;99.90;;;;;;6291995;22;20206;-84
2023/07/28 01:13:05;;;;;;;8.07;7.88;;;16.70;99.90;;;;;;6292235;22;20272;-84
2023/07/28 01:18:43;;;;;;;8.10;7.90;;;16.70;99.90;;;;;;6288106;22;20256;-84
2023/07/28 01:21:27;;;;;;;8.40;8.20;;;16.70;99.90;;;;;;6299701;22;20201;-83
2023/07/28 01:24:25;;;;;;;;;;;;;;;;;;;;;
2023/07/28 01:27:43;;;;;;;;;;;;;;;;;;;;;
2023/07/28 01:30:25;;;;;;;8.10;7.90;;;16.60;99.90;;;;;;6266665;22;20216;-84
2023/07/28 01:33:00;;;;;;;8.20;8.00;;;16.60;99.90;;;;;;6293208;22;20232;-84
2023/07/28 01:36:21;;;;;;;8.30;8.10;;;16.60;99.90;;;;;;6296138;22;20197;-84
2023/07/28 01:38:59;;;;;;;8.20;8.00;;;16.60;99.90;;;;;;6169472;23;20282;-84
2023/07/28 01:41:39;;;;;;;8.15;7.95;;;16.50;99.90;;;;;;6259815;22;20201;-84
2023/07/28 01:44:39;;;;;;;8.13;7.93;;;16.50;99.90;;;;;;6289011;22;20279;-85
2023/07/28 01:47:32;;;;;;;;;;;;;;;;;;;;;
2023/07/28 01:50:26;;;;;;;8.02;7.82;;;16.50;99.90;;;;;;6291704;22;20205;-84
2023/07/28 01:53:10;;;;;;;8.10;7.90;;;16.50;99.90;;;;;;6291925;22;20194;-85
2023/07/28 01:55:52;;;;;;;8.10;7.90;;;16.50;99.90;;;;;;6291276;22;20193;-84
2023/07/28 01:58:46;;;;;;;7.90;7.70;;;16.50;99.90;;;;;;6291145;22;20190;-85
2023/07/28 02:01:58;;;;;;;8.10;7.90;;;16.50;99.90;;;;;;6291337;22;20225;-84
2023/07/28 02:07:35;;;;;;;7.90;7.70;;;16.50;99.90;;;;;;6287667;22;20209;-86
2023/07/28 02:10:08;;;;;;;7.82;7.63;;;16.50;99.90;;;;;;6289907;22;20204;-85
2023/07/28 02:12:42;;;;;;;7.82;7.63;;;16.50;99.90;;;;;;6291454;22;20271;-86
2023/07/28 02:15:27;;;;;;;7.72;7.53;;;16.50;99.90;;;;;;6290537;22;20196;-84
2023/07/28 02:18:18;;;;;;;7.50;7.30;;;16.50;99.90;;;;;;6289678;22;20263;-85
2023/07/28 02:21:06;;;;;;;7.82;7.63;;;16.50;99.90;;;;;;6289200;22;20201;-84
2023/07/28 02:23:57;;;;;;;7.90;7.70;;;16.50;99.90;;;;;;6289861;22;20224;-85
2023/07/28 02:26:31;;;;;;;7.57;7.38;;;16.50;99.90;;;;;;6290559;22;20205;-84
2023/07/28 02:29:50;;;;;;;7.80;7.60;;;16.50;99.90;;;;;;6304929;22;20235;-83
2023/07/28 02:32:52;;;;;;;7.40;7.20;;;16.60;99.90;;;;;;6307541;22;20197;-85
2023/07/28 02:38:54;;;;;;;7.60;7.40;;;16.60;99.90;;;;;;6276835;22;20197;-84
2023/07/28 02:41:43;;;;;;;7.72;7.53;;;16.60;99.90;;;;;;6292322;22;20217;-84
2023/07/28 02:44:47;;;;;;;7.53;7.32;;;16.70;99.90;;;;;;6294036;22;20197;-84
2023/07/28 02:47:46;;;;;;;7.57;7.38;;;16.70;99.90;;;;;;6116100;23;20201;-84
2023/07/28 02:53:48;;;;;;;7.72;7.53;;;16.80;99.90;;;;;;6305952;22;20189;-83
2023/07/28 03:00:19;;;;;;;7.60;7.40;;;16.80;99.90;;;;;;6299307;22;20225;-84
2023/07/28 03:03:35;;;;;;;7.90;7.70;;;16.80;99.90;;;;;;6302995;22;20256;-84
2023/07/28 03:06:30;;;;;;;7.85;7.65;;;16.80;99.90;;;;;;6292453;22;20197;-84
2023/07/28 03:11:23;;;;;;;7.50;7.30;;;16.80;99.90;;;;;;6282190;22;20205;-79
2023/07/28 03:13:50;;;;;;;7.63;7.43;;;16.80;99.90;;;;;;6296001;22;20220;-79
2023/07/28 03:16:17;;;;;;;7.60;7.40;;;16.80;99.90;;;;;;6299236;22;20200;-79
2023/07/28 03:18:44;;;;;;;7.65;7.45;;;16.80;99.90;;;;;;6290801;22;20249;-79
2023/07/28 03:21:11;;;;;;;7.60;7.40;;;16.80;99.90;;;;;;6287037;22;20297;-79
2023/07/28 03:23:39;;;;;;;7.80;7.60;;;16.80;99.90;;;;;;6287106;22;20193;-78
2023/07/28 03:26:06;;;;;;;7.55;7.35;;;16.80;99.90;;;;;;6289847;22;20196;-79
2023/07/28 03:28:34;;;;;;;7.38;7.18;;;16.80;99.90;;;;;;6292108;22;20205;-78
2023/07/28 03:31:01;;;;;;;7.50;7.30;;;16.90;99.90;;;;;;6293396;22;20272;-78
2023/07/28 03:33:28;;;;;;;7.40;7.20;;;16.90;99.90;;;;;;6307087;22;20197;-78
2023/07/28 03:35:55;;;;;;;7.55;7.35;;;16.90;99.90;;;;;;6307591;22;20206;-78
2023/07/28 03:38:24;;;;;;;7.63;7.43;;;17.00;99.90;;;;;;6305913;22;20283;-78
2023/07/28 03:40:51;;;;;;;7.45;7.25;;;17.00;99.90;;;;;;6305923;22;20216;-79
2023/07/28 03:43:18;;;;;;;7.53;7.32;;;17.10;99.90;;;;;;6308004;22;20190;-78
2023/07/28 03:45:46;;;;;;;7.60;7.40;;;17.00;99.90;;;;;;6307653;22;20190;-78
2023/07/28 03:48:13;;;;;;;7.68;7.47;;;17.10;99.90;;;;;;6306738;22;20209;-78
2023/07/28 03:50:40;;;;;;;7.90;7.70;;;17.10;99.90;;;;;;6305949;22;20205;-78
2023/07/28 03:53:08;;;;;;;7.85;7.65;;;17.20;99.90;;;;;;6307414;22;20198;-78
2023/07/28 03:55:35;;;;;;;7.82;7.63;;;17.20;99.90;;;;;;6307601;22;20194;-78
2023/07/28 03:58:02;;;;;;;7.82;7.63;;;17.10;99.90;;;;;;6307154;22;20265;-78
2023/07/28 04:00:30;;;;;;;7.90;7.70;;;17.10;99.90;;;;;;6307000;22;20205;-78
2023/07/28 04:02:59;;;;;;;8.05;7.85;;;17.00;99.90;;;;;;6308244;22;20196;-79
2023/07/28 04:05:26;;;;;;;7.80;7.60;;;17.10;99.90;;;;;;6308495;22;20240;-79
2023/07/28 04:07:53;;;;;;;7.78;7.57;;;17.10;99.90;;;;;;6308120;22;20202;-78
2023/07/28 04:10:20;;;;;;;7.70;7.50;;;17.10;99.90;;;;;;6308486;22;20260;-78
2023/07/28 04:12:47;;;;;;;7.70;7.50;;;17.00;99.90;;;;;;6308583;22;20201;-78
2023/07/28 04:15:14;;;;;;;7.70;7.50;;;17.00;99.90;;;;;;6300928;22;20208;-79
2023/07/28 04:17:41;;;;;;;7.80;7.60;;;17.00;99.90;;;;;;6307126;22;20209;-78
2023/07/28 04:20:11;;;;;;;7.60;7.40;;;17.00;99.90;;;;;;6307219;22;20198;-79
2023/07/28 04:22:38;;;;;;;7.40;7.20;;;16.90;99.90;;;;;;6306748;22;20245;-79
2023/07/28 04:25:07;;;;;;;7.68;7.47;;;16.90;99.90;;;;;;6300373;22;20763;-79
2023/07/28 04:27:34;;;;;;;7.50;7.30;;;16.90;99.90;;;;;;6288324;22;20205;-79
2023/07/28 04:30:01;;;;;;;7.70;7.50;;;17.00;99.90;;;;;;6288300;22;20205;-79
2023/07/28 04:32:28;;;;;;;7.70;7.50;;;17.00;99.90;;;;;;6287271;22;20190;-79
2023/07/28 04:34:55;;;;;;;7.50;7.30;;;17.00;99.90;;;;;;6287008;22;20205;-79
2023/07/28 04:37:23;;;;;;;7.60;7.40;;;17.00;99.90;;;;;;6287592;22;20198;-79
2023/07/28 04:39:50;;;;;;;7.57;7.38;;;17.00;99.90;;;;;;6287236;22;20198;-79
2023/07/28 04:42:18;;;;;;;7.20;7.00;;;17.00;99.90;;;;;;6286978;22;20241;-79
2023/07/28 04:44:46;;;;;;;7.80;7.60;;;16.90;99.90;;;;;;6287267;22;20205;-80
2023/07/28 04:47:13;;;;;;;7.63;7.43;;;16.90;99.90;;;;;;6286864;22;20228;-79
2023/07/28 04:49:40;;;;;;;7.35;7.15;;;16.90;99.90;;;;;;6287021;22;20210;-79
2023/07/28 04:52:08;;;;;;;7.57;7.38;;;16.90;99.90;;;;;;6287180;22;20193;-79
2023/07/28 04:54:37;;;;;;;7.35;7.15;;;16.90;99.90;;;;;;6287101;22;20206;-80
2023/07/28 04:57:05;;;;;;;7.60;7.40;;;16.90;99.90;;;;;;6287479;22;20217;-80
2023/07/28 04:59:32;;;;;;;7.25;7.05;;;16.90;99.90;;;;;;6295924;22;20236;-79
2023/07/28 05:01:59;;;;;;;7.25;7.05;;;16.90;99.90;;;;;;6287113;22;20209;-80
2023/07/28 05:04:26;;;;;;;7.15;6.95;;;17.00;99.90;;;;;;6286991;22;20276;-79
2023/07/28 05:06:53;;;;;;;7.10;6.90;;;17.00;99.90;;;;;;6286477;22;20204;-79
2023/07/28 05:09:20;;;;;;;7.40;7.20;;;17.00;99.90;;;;;;6287016;22;20205;-79
2023/07/28 05:11:49;;;;;;;7.40;7.20;;;17.00;99.90;;;;;;6286812;22;20236;-79
2023/07/28 05:14:16;;;;;;;7.25;7.05;;;17.00;99.90;;;;;;6286841;22;20257;-79
2023/07/28 05:16:43;;;;;;;7.40;7.20;;;17.00;99.90;;;;;;6287020;22;20212;-79
2023/07/28 05:19:10;;;;;;;7.32;7.13;;;17.00;99.90;;;;;;6289362;22;20197;-79
2023/07/28 05:21:37;;;;;;;7.47;7.28;;;17.00;99.90;;;;;;6286239;22;20209;-80
2023/07/28 05:24:04;;;;;;;7.20;7.00;;;17.00;99.90;;;;;;6286626;22;20194;-78
2023/07/28 05:26:31;;;;;;;7.47;7.28;;;17.00;99.90;;;;;;6286385;22;20205;-79
2023/07/28 05:29:00;;;;;;;7.40;7.20;;;17.00;99.90;;;;;;6285642;22;20193;-78
2023/07/28 05:31:27;;;;;;;7.00;6.80;;;17.00;99.90;;;;;;6285486;22;20286;-79
2023/07/28 05:33:54;;;;;;;6.90;6.70;;;17.00;99.90;;;;;;6285583;22;20233;-79
2023/07/28 05:36:21;;;;;;;6.85;6.65;;;17.00;99.90;;;;;;6286482;22;20197;-79
2023/07/28 05:38:49;;;;;;;6.75;6.55;;;17.10;99.90;;;;;;6285856;22;20237;-79
2023/07/28 05:41:16;;;;;;;6.68;6.47;;;17.10;99.90;;;;;;6287003;22;20259;-79
2023/07/28 05:43:43;;;;;;;6.90;6.70;;;17.10;99.90;;;;;;6285935;22;20361;-78
2023/07/28 05:46:12;;;;;;;6.80;6.60;;;17.10;99.90;;;;;;6286635;22;20201;-80
2023/07/28 05:48:39;;;;;;;6.70;6.50;;;17.10;99.90;;;;;;6295133;22;20243;-79
2023/07/28 05:51:06;;;;;;;6.72;6.53;;;17.20;99.90;;;;;;6283913;22;20205;-79
2023/07/28 05:53:33;;;;;;;6.75;6.55;;;17.20;99.90;;;;;;6284896;22;20190;-78
2023/07/28 05:56:00;;;;;;;6.70;6.50;;;17.20;99.90;;;;;;6285736;22;20212;-79
2023/07/28 05:58:27;;;;;;;6.60;6.40;;;17.20;99.90;;;;;;6285986;22;20221;-79
2023/07/28 06:00:54;;;;;;;6.50;6.30;;;17.20;99.90;;;;;;6285315;22;20292;-79
2023/07/28 06:03:23;;;;;;;6.60;6.40;;;17.20;99.90;;;;;;6285526;22;20202;-78
2023/07/28 06:05:50;;;;;;;6.55;6.35;;;17.20;99.90;;;;;;6285285;22;20305;-79
2023/07/28 06:08:18;;;;;;;6.65;6.45;;;17.20;99.90;;;;;;6285998;22;20209;-79
2023/07/28 06:10:45;;;;;;;6.57;6.38;;;17.30;99.90;;;;;;6286266;22;20205;-79
2023/07/28 06:13:12;;;;;;;6.57;6.38;;;17.30;99.90;;;;;;6291901;22;20226;-78
2023/07/28 06:15:40;;;;;;;6.70;6.50;;;17.40;99.90;;;;;;6290403;22;20205;-79
2023/07/28 06:18:07;;;;;;;6.72;6.53;;;17.40;99.90;;;;;;6287116;22;20193;-79
2023/07/28 06:20:36;;;;;;;6.55;6.35;;;17.40;99.90;;;;;;6285017;22;20296;-79
2023/07/28 06:23:03;;;;;;;6.65;6.45;;;17.50;99.90;;;;;;6285574;22;20201;-78
2023/07/28 06:25:30;;;;;;;6.68;6.47;;;17.60;99.90;;;;;;6285296;22;20221;-82
2023/07/28 06:27:57;;;;;;;6.50;6.30;;;17.70;99.90;;;;;;6285775;22;20193;-79
2023/07/28 06:30:24;;;;;;;6.50;6.30;;;17.70;99.90;;;;;;6285196;22;20300;-79
2023/07/28 06:32:51;;;;;;;6.50;6.30;;;17.80;99.90;;;;;;6285616;22;20228;-79
2023/07/28 06:35:18;;;;;;;6.50;6.30;;;17.80;99.90;;;;;;6285877;22;20206;-79
2023/07/28 06:37:47;;;;;;;6.53;6.32;;;17.80;99.90;;;;;;6289015;22;20208;-79
2023/07/28 06:40:14;;;;;;;6.65;6.45;;;17.80;99.90;;;;;;6299273;22;20214;-79
2023/07/28 06:42:41;;;;;;;6.60;6.40;;;17.80;99.90;;;;;;6304788;22;20216;-78
2023/07/28 06:45:09;;;;;;;6.45;6.25;;;17.70;99.90;;;;;;6289288;22;20189;-79
2023/07/28 06:47:36;;;;;;;6.30;6.10;;;17.70;99.90;;;;;;6287613;22;20198;-79
2023/07/28 06:50:05;;;;;;;6.10;6.00;;;17.70;99.90;;;;;;6286136;22;20263;-79
2023/07/28 06:52:32;;;;;;;6.40;6.20;;;17.70;99.90;;;;;;6285885;22;20201;-79
2023/07/28 06:55:00;;;;;;;6.35;6.15;;;17.70;99.90;;;;;;6286473;22;20276;-79
2023/07/28 06:57:27;;;;;;;6.22;6.03;;;17.80;99.90;;;;;;6287053;22;20243;-79
2023/07/28 06:59:54;;;;;;;6.15;6.03;;;17.80;99.90;;;;;;6286285;22;20201;-78
2023/07/28 07:02:21;;;;;;;6.53;6.32;;;17.80;99.90;;;;;;6285731;22;20300;-78
2023/07/28 07:04:49;;;;;;;6.32;6.13;;;17.80;99.90;;;;;;6284076;22;20197;-78
2023/07/28 07:07:16;;;;;;;6.40;6.20;;;17.80;99.90;;;;;;6285298;22;20236;-78
2023/07/28 07:09:43;;;;;;;6.50;6.30;;;17.70;99.90;;;;;;6284111;22;20213;-78
2023/07/28 07:12:12;;;;;;;6.35;6.15;;;17.60;99.90;;;;;;6285203;22;20190;-78
2023/07/28 07:14:39;;;;;;;6.50;6.30;;;17.60;99.90;;;;;;6284106;22;20256;-78
2023/07/28 07:17:07;;;;;;;6.30;6.10;;;17.70;99.90;;;;;;6289353;22;20209;-80
2023/07/28 07:19:34;;;;;;;6.47;6.28;;;17.70;99.90;;;;;;6283789;22;20206;-79
2023/07/28 07:22:01;;;;;;;6.60;6.40;;;17.80;99.90;;;;;;6283830;22;20249;-79
2023/07/28 07:24:28;;;;;;;6.25;6.07;;;17.80;99.90;;;;;;6284333;22;20201;-79
2023/07/28 07:26:55;;;;;;;6.35;6.15;;;18.00;99.90;;;;;;6284821;22;20266;-79
2023/07/28 07:29:24;;;;;;;6.50;6.30;;;18.00;99.90;;;;;;6294859;22;20201;-78
2023/07/28 07:31:54;;;;;;;6.40;6.20;;;18.20;99.90;;;;;;6285096;22;20194;-78
2023/07/28 07:34:22;;;;;;;6.57;6.38;;;18.30;99.90;;;;;;6284437;22;20194;-78
2023/07/28 07:36:49;;;;;;;6.90;6.70;;;18.30;99.90;;;;;;6284118;22;20201;-78
2023/07/28 07:39:16;;;;;;;6.90;6.70;;;18.40;99.90;;;;;;6285203;22;20189;-79
2023/07/28 07:41:45;;;;;;;6.70;6.50;;;18.60;99.90;;;;;;6284578;22;20207;-78
2023/07/28 07:44:12;;;;;;;6.57;6.38;;;18.60;99.90;;;;;;6284788;22;20206;-79
2023/07/28 07:46:40;;;;;;;6.90;6.70;;;18.70;99.90;;;;;;6284661;22;20194;-78
2023/07/28 07:49:07;;;;;;;6.80;6.60;;;18.70;99.90;;;;;;6284703;22;20240;-78
2023/07/28 07:51:35;;;;;;;6.90;6.70;;;18.70;99.90;;;;;;6284352;22;20280;-79
2023/07/28 07:54:02;;;;;;;6.93;6.72;;;18.70;99.90;;;;;;6283825;22;20202;-78
2023/07/28 07:56:29;;;;;;;7.18;6.97;;;18.80;99.90;;;;;;6284154;22;20197;-79
2023/07/28 07:58:56;;;;;;;7.30;7.10;;;19.00;99.90;;;;;;6284638;22;20225;-79
2023/07/28 08:01:23;;;;;;;7.68;7.47;;;19.20;99.90;;;;;;6283326;22;20270;-78
2023/07/28 08:03:52;;;;;;;7.90;7.70;;;19.20;99.90;;;;;;6284379;22;20206;-78
2023/07/28 08:06:19;;;;;;;7.80;7.60;;;19.30;99.90;;;;;;6284352;22;20224;-79
2023/07/28 08:08:46;;;;;;;7.80;7.60;;;19.40;99.90;;;;;;6284014;22;20193;-79
2023/07/28 08:11:13;;;;;;;7.88;7.68;;;19.60;99.90;;;;;;6283186;22;20262;-79
2023/07/28 08:13:40;;;;;;;7.97;7.78;;;19.80;99.90;;;;;;6283726;22;20279;-79
2023/07/28 08:16:07;;;;;;;8.13;7.93;;;19.80;99.90;;;;;;6283792;22;20273;-79
2023/07/28 08:18:34;;;;;;;8.15;7.95;;;19.90;99.90;;;;;;6283588;22;20201;-78
2023/07/28 08:21:02;;;;;;;8.27;8.07;;;20.00;99.90;;;;;;6294280;22;20281;-78
2023/07/28 08:23:29;;;;;;;8.20;8.00;;;20.00;99.90;;;;;;6284158;22;20212;-79
2023/07/28 08:25:57;;;;;;;8.45;8.25;;;20.00;99.90;;;;;;6283972;22;20256;-79
2023/07/28 08:28:24;;;;;;;8.40;8.20;;;20.00;99.90;;;;;;6283762;22;20202;-78
2023/07/28 08:30:56;;;;;;;8.32;8.13;;;20.00;99.90;;;;;;6283868;22;20269;-78
2023/07/28 08:33:23;;;;;;;8.63;8.43;;;20.10;99.90;;;;;;6286465;22;20293;-78
2023/07/28 08:35:50;;;;;;;8.52;8.32;;;20.10;99.90;;;;;;6283971;22;20268;-78
2023/07/28 08:38:19;;;;;;;8.48;8.27;;;20.10;99.90;;;;;;6283437;22;20207;-78
2023/07/28 08:40:46;;;;;;;8.60;8.40;;;20.10;99.90;;;;;;6283136;22;20220;-78
2023/07/28 08:43:13;;;;;;;8.40;8.20;;;20.10;99.90;;;;;;6284150;22;20213;-78
2023/07/28 08:45:40;;;;;;;8.73;8.52;;;20.20;99.90;;;;;;6287179;22;20217;-77
2023/07/28 08:48:08;;;;;;;8.85;8.65;;;20.20;99.90;;;;;;6284619;22;20189;-79
2023/07/28 08:50:35;;;;;;;8.80;8.60;;;20.20;99.90;;;;;;6283087;22;20216;-78
2023/07/28 08:53:01;;;;;;;8.80;8.60;;;20.20;99.90;;;;;;6283415;22;20212;-78
2023/07/28 08:55:30;;;;;;;8.77;8.57;;;20.30;99.90;;;;;;6284118;22;20194;-79
2023/07/28 08:57:57;;;;;;;9.13;8.82;;;20.30;99.90;;;;;;6284320;22;20221;-79
2023/07/28 09:00:28;;;;;;;8.90;8.68;;;20.30;99.90;;;;;;6283596;22;20284;-78
2023/07/28 09:02:55;;;;;;;8.55;8.35;;;20.40;99.90;;;;;;6284258;22;20194;-78
2023/07/28 09:05:23;;;;;;;9.13;8.82;;;20.40;99.90;;;;;;6283965;22;20253;-79
2023/07/28 09:07:51;;;;;;;9.18;8.88;;;20.40;99.90;;;;;;6282659;22;20237;-78
2023/07/28 09:10:19;;;;;;;9.25;8.95;;;20.50;99.90;;;;;;6290954;22;20210;-85
2023/07/28 09:12:49;;;;;;;9.57;9.27;;;20.60;99.90;;;;;;6309163;22;20184;-83
2023/07/28 09:15:20;;;;;;;9.30;9.00;;;20.50;99.90;;;;;;6302394;22;20189;-83
2023/07/28 09:17:50;;;;;;;9.63;9.32;;;20.50;99.90;;;;;;6297279;22;20192;-85
2023/07/28 09:20:20;;;;;;;9.60;9.30;;;20.50;99.90;;;;;;6295111;22;20201;-85
2023/07/28 09:22:51;;;;;;;9.45;9.15;;;20.50;99.90;;;;;;6294897;22;20210;-85
2023/07/28 09:25:24;;;;;;;9.70;9.40;;;20.60;99.90;;;;;;6295961;22;20190;-85
2023/07/28 09:27:53;;;;;;;9.77;9.48;;;20.60;99.90;;;;;;6294488;22;20212;-85
2023/07/28 09:30:22;;;;;;;9.80;9.50;;;20.50;99.90;;;;;;6293294;22;20232;-84
2023/07/28 09:32:51;;;;;;;9.55;9.25;;;20.40;99.90;;;;;;6292701;22;20202;-85
2023/07/28 09:35:23;;;;;;;9.68;9.38;;;20.50;99.90;;;;;;6294782;22;20189;-84
2023/07/28 09:37:59;;;;;;;9.70;9.40;;;20.60;99.90;;;;;;6294653;22;20197;-85
2023/07/28 09:40:32;;;;;;;9.43;9.13;;;20.60;99.90;;;;;;6295245;22;20236;-85
2023/07/28 09:43:02;;;;;;;9.40;9.10;;;20.60;99.90;;;;;;6292511;22;20259;-85
2023/07/28 09:45:32;;;;;;;9.30;9.00;;;20.70;99.90;;;;;;6292989;22;20741;-85
2023/07/28 09:48:03;;;;;;;9.50;9.20;;;20.80;99.90;;;;;;6293103;22;20197;-85
2023/07/28 09:50:35;;;;;;;9.60;9.30;;;21.00;99.90;;;;;;6294228;22;20201;-85
2023/07/28 09:53:09;;;;;;;9.30;9.00;;;21.10;99.90;;;;;;6298621;22;20194;-84
2023/07/28 09:55:40;;;;;;;9.70;9.40;;;21.40;99.90;;;;;;6291580;22;20189;-84
2023/07/28 09:58:11;;;;;;;9.43;9.13;;;21.60;99.90;;;;;;6291662;22;20199;-84
2023/07/28 10:00:44;;;;;;;9.55;9.25;;;21.80;99.90;;;;;;6292388;22;20209;-85
2023/07/28 10:03:13;;;;;;;9.50;9.20;;;21.80;99.90;;;;;;6298691;22;20206;-84
2023/07/28 10:05:41;;;;;;;9.30;9.00;;;21.90;99.90;;;;;;6294385;22;20190;-84
2023/07/28 10:08:12;;;;;;;9.60;9.30;;;21.80;99.90;;;;;;6294718;22;20247;-85
2023/07/28 10:10:41;;;;;;;9.52;9.23;;;21.60;99.90;;;;;;6292989;22;20209;-85
2023/07/28 10:13:21;;;;;;;9.48;9.18;;;21.50;99.90;;;;;;6293329;22;20186;-83
2023/07/28 10:15:49;;;;;;;9.63;9.32;;;21.30;99.90;;;;;;6294721;22;20199;-85
2023/07/28 10:18:17;;;;;;;9.45;9.15;;;21.10;99.90;;;;;;6292901;22;20220;-86
2023/07/28 10:20:49;;;;;;;9.40;9.10;;;21.00;99.90;;;;;;6292779;22;20201;-86
2023/07/28 10:23:22;;;;;;;9.50;9.20;;;20.90;99.90;;;;;;6292497;22;20237;-85
2023/07/28 10:26:05;;;;;;;9.23;8.93;;;20.80;99.90;;;;;;6297079;22;20194;-85
2023/07/28 10:28:38;;;;;;;9.50;9.20;;;20.90;99.90;;;;;;6292877;22;20255;-86
2023/07/28 10:31:07;;;;;;;9.45;9.15;;;20.90;99.90;;;;;;6292091;22;20208;-86
2023/07/28 10:33:36;;;;;;;9.38;9.07;;;21.00;99.90;;;;;;6291852;22;20205;-85
2023/07/28 10:36:14;;;;;;;9.20;8.90;;;21.10;99.90;;;;;;6291681;22;20219;-84
2023/07/28 10:38:43;;;;;;;9.50;9.20;;;21.30;99.90;;;;;;6292480;22;20199;-85
2023/07/28 10:41:21;;;;;;;9.38;9.07;;;21.40;99.90;;;;;;6292398;22;20202;-85
2023/07/28 10:43:50;;;;;;;9.60;9.30;;;21.40;99.90;;;;;;6293944;22;20189;-84
2023/07/28 10:46:23;;;;;;;9.40;9.10;;;21.50;99.90;;;;;;6295117;22;20244;-85
2023/07/28 10:48:52;;;;;;;9.60;9.30;;;21.80;99.90;;;;;;6291801;22;20201;-85
2023/07/28 10:51:25;;;;;;;9.75;9.45;;;22.20;99.90;;;;;;6290685;22;20201;-82
2023/07/28 10:53:59;;;;;;;9.68;9.38;;;22.70;99.90;;;;;;6294194;22;20197;-84
2023/07/28 10:56:27;;;;;;;9.90;9.60;;;22.90;99.90;;;;;;6292501;22;20193;-84
2023/07/28 10:59:18;;;;;;;9.73;9.43;;;23.00;99.90;;;;;;6292669;22;20225;-85
2023/07/28 11:01:47;;;;;;;9.95;9.65;;;23.00;99.90;;;;;;6296417;22;20226;-84
2023/07/28 11:04:16;;;;;;;9.77;9.48;;;23.10;99.90;;;;;;6293077;22;20186;-84
2023/07/28 11:06:49;;;;;;;9.80;9.50;;;23.30;99.90;;;;;;6292905;22;20208;-85
2023/07/28 11:09:19;;;;;;;9.90;9.60;;;23.50;99.90;;;;;;6298178;22;20224;-84
2023/07/28 11:11:51;;;;;;;9.85;9.55;;;23.50;99.90;;;;;;6298176;22;20194;-84
2023/07/28 11:14:20;;;;;;;9.88;9.57;;;23.40;99.90;;;;;;6292284;22;20198;-84
2023/07/28 11:16:48;;;;;;;10.20;9.90;;;23.30;99.90;;;;;;6288862;22;20209;-84
2023/07/28 11:19:19;;;;;;;10.10;9.80;;;23.30;99.90;;;;;;6288320;22;20244;-84
2023/07/28 11:21:51;;;;;;;9.85;9.55;;;23.20;99.90;;;;;;6289956;22;20197;-84
2023/07/28 11:24:20;;;;;;;10.00;9.70;;;23.10;99.90;;;;;;6292216;22;20197;-84
2023/07/28 11:26:49;;;;;;;10.00;9.70;;;23.00;99.90;;;;;;6298975;22;20225;-84
2023/07/28 11:29:21;;;;;;;9.93;9.63;;;22.90;99.90;;;;;;6299031;22;20200;-84
2023/07/28 11:31:49;;;;;;;9.85;9.55;;;22.80;99.90;;;;;;6298946;22;20196;-83
2023/07/28 11:34:18;;;;;;;10.05;9.75;;;22.70;99.90;;;;;;6299421;22;20197;-82
2023/07/28 11:36:49;;;;;;;9.90;9.60;;;22.70;99.90;;;;;;6297701;22;20212;-83
2023/07/28 11:39:23;;;;;;;9.85;9.55;;;22.80;99.90;;;;;;6295138;22;20205;-84
2023/07/28 11:41:54;;;;;;;9.90;9.60;;;22.90;99.90;;;;;;6293542;22;20204;-84
2023/07/28 11:44:25;;;;;;;10.20;9.90;;;23.00;99.90;;;;;;6293759;22;20200;-85
2023/07/28 11:46:55;;;;;;;9.98;9.68;;;23.30;99.90;;;;;;6292797;22;20189;-84
2023/07/28 11:49:23;;;;;;;10.25;9.95;;;23.60;99.90;;;;;;6292685;22;20196;-85
2023/07/28 11:51:58;;;;;;;10.00;9.70;;;24.00;99.90;;;;;;6298276;22;20205;-85
2023/07/28 11:54:30;;;;;;;10.07;9.77;;;24.50;99.90;;;;;;6310421;22;20192;-85
2023/07/28 11:57:01;;;;;;;10.27;9.98;;;24.30;99.90;;;;;;6310440;22;20217;-84
2023/07/28 11:59:30;;;;;;;9.85;9.55;;;24.10;99.90;;;;;;6310179;22;20268;-85
2023/07/28 12:02:02;;;;;;;10.20;9.90;;;23.90;99.90;;;;;;6297185;22;20238;-86
2023/07/28 12:04:38;;;;;;;10.13;9.82;;;23.80;99.90;;;;;;6291119;22;20197;-86
2023/07/28 12:07:10;;;;;;;10.23;9.93;;;23.90;99.90;;;;;;6292912;22;20323;-83
2023/07/28 12:09:53;;;;;;;10.27;9.98;;;24.10;99.90;;;;;;6293577;22;20194;-85
2023/07/28 12:12:28;;;;;;;10.40;10.10;;;24.50;99.90;;;;;;6294809;22;20189;-85
2023/07/28 12:15:02;;;;;;;10.40;10.10;;;24.60;99.90;;;;;;6294810;22;20193;-84
2023/07/28 12:17:30;;;;;;;10.10;9.80;;;24.60;99.90;;;;;;6292078;22;20196;-86
2023/07/28 12:20:05;;;;;;;10.40;10.10;;;24.80;99.90;;;;;;6292229;22;20201;-85
2023/07/28 12:22:33;;;;;;;10.20;9.90;;;25.20;99.90;;;;;;6291374;22;20216;-85
2023/07/28 12:25:02;;;;;;;10.30;10.00;;;25.60;99.90;;;;;;6299459;22;20174;-84
2023/07/28 12:27:30;;;;;;;10.00;9.70;;;25.70;99.90;;;;;;6310452;22;20197;-85
2023/07/28 12:29:59;;;;;;;10.13;9.82;;;25.40;99.90;;;;;;6310221;22;20193;-84
2023/07/28 12:32:26;;;;;;;10.10;9.80;;;25.10;99.90;;;;;;6305293;22;20207;-86
2023/07/28 12:34:55;;;;;;;9.80;9.50;;;24.70;99.90;;;;;;6293693;22;20201;-85
2023/07/28 12:37:23;;;;;;;10.30;10.00;;;24.20;99.90;;;;;;6295000;22;20224;-86
2023/07/28 12:39:50;;;;;;;10.27;9.98;;;23.60;99.90;;;;;;6295049;22;20194;-85
2023/07/28 12:42:19;;;;;;;10.30;10.00;;;23.10;99.90;;;;;;6294087;22;20194;-84
2023/07/28 12:44:46;;;;;;;10.38;10.07;;;22.90;99.90;;;;;;6293057;22;20193;-85
2023/07/28 12:47:15;;;;;;;10.15;9.85;;;22.80;99.90;;;;;;6293405;22;20213;-85
2023/07/28 12:49:42;;;;;;;10.10;9.80;;;22.90;99.90;;;;;;6292941;22;20208;-85
2023/07/28 12:52:09;;;;;;;9.93;9.63;;;22.90;99.90;;;;;;6292111;22;20189;-84
2023/07/28 12:54:38;;;;;;;10.00;9.70;;;23.00;99.90;;;;;;6292476;22;20197;-84
2023/07/28 12:57:10;;;;;;;9.93;9.63;;;23.10;99.90;;;;;;6293022;22;20224;-85
2023/07/28 12:59:37;;;;;;;10.30;10.00;;;23.20;99.90;;;;;;6293628;22;20213;-87
2023/07/28 13:02:05;;;;;;;10.35;10.05;;;23.40;99.90;;;;;;6293211;22;20216;-85
2023/07/28 13:04:34;;;;;;;10.57;10.27;;;23.50;99.90;;;;;;6292211;22;20194;-85
2023/07/28 13:07:01;;;;;;;10.05;9.75;;;23.50;99.90;;;;;;6291434;22;20228;-84
2023/07/28 13:09:29;;;;;;;10.23;9.93;;;23.30;99.90;;;;;;6292549;22;20220;-85
2023/07/28 13:11:56;;;;;;;10.25;9.95;;;23.10;99.90;;;;;;6292414;22;20245;-84
2023/07/28 13:14:24;;;;;;;10.27;9.98;;;22.80;99.90;;;;;;6292698;22;20197;-84
2023/07/28 13:16:51;;;;;;;10.20;9.90;;;22.60;99.90;;;;;;6292765;22;20201;-84
2023/07/28 13:19:21;;;;;;;10.20;9.90;;;22.50;99.90;;;;;;6295803;22;20194;-87
2023/07/28 13:21:50;;;;;;;10.23;9.93;;;22.50;99.90;;;;;;6290043;22;20194;-84
2023/07/28 13:24:17;;;;;;;10.20;9.90;;;22.60;99.90;;;;;;6289887;22;20202;-84
2023/07/28 13:26:44;;;;;;;10.45;10.15;;;22.70;99.90;;;;;;6291772;22;20201;-84
2023/07/28 13:29:11;;;;;;;10.80;10.50;;;22.80;99.90;;;;;;6293344;22;20198;-85
2023/07/28 13:31:40;;;;;;;10.48;10.18;;;23.10;99.90;;;;;;6291237;22;20202;-84
2023/07/28 13:34:07;;;;;;;10.27;9.98;;;23.20;99.90;;;;;;6292281;22;20186;-84
2023/07/28 13:36:34;;;;;;;10.40;10.10;;;23.20;99.90;;;;;;6292496;22;20193;-84
2023/07/28 13:39:03;;;;;;;10.57;10.27;;;23.30;99.90;;;;;;6292571;22;20197;-85